sensor_id;sensor_type;location;lat;lon;timestamp;P1;durP1;ratioP1;P2;durP2;ratioP2
30301;SDS011;17111;52.130;5.028;2024-03-23T00:55:50;15.45;;;10.27;;
30301;SDS011;17111;52.130;5.028;2024-03-23T00:58:16;16.27;;;11.35;;
30301;SDS011;17111;52.130;5.028;2024-03-23T01:00:41;18.02;;;11.07;;
30301;SDS011;17111;52.130;5.028;2024-03-23T01:03:07;16.35;;;10.93;;
30301;SDS011;17111;52.130;5.028;2024-03-23T01:05:32;15.70;;;10.57;;
30301;SDS011;17111;52.130;5.028;2024-03-23T01:07:58;15.35;;;10.50;;
30301;SDS011;17111;52.130;5.028;2024-03-23T01:10:24;15.05;;;9.98;;
30301;SDS011;17111;52.130;5.028;2024-03-23T01:12:49;14.48;;;9.82;;
30301;SDS011;17111;52.130;5.028;2024-03-23T01:15:15;17.55;;;10.52;;
30301;SDS011;17111;52.130;5.028;2024-03-23T01:17:40;15.02;;;10.18;;
30301;SDS011;17111;52.130;5.028;2024-03-23T01:20:06;13.57;;;8.73;;
30301;SDS011;17111;52.130;5.028;2024-03-23T01:22:32;15.00;;;10.05;;
30301;SDS011;17111;52.130;5.028;2024-03-23T01:24:58;14.80;;;9.18;;
30301;SDS011;17111;52.130;5.028;2024-03-23T01:27:24;13.15;;;8.32;;
30301;SDS011;17111;52.130;5.028;2024-03-23T01:29:50;14.82;;;8.88;;
30301;SDS011;17111;52.130;5.028;2024-03-23T01:32:17;13.55;;;9.02;;
30301;SDS011;17111;52.130;5.028;2024-03-23T01:34:44;14.82;;;9.30;;
30301;SDS011;17111;52.130;5.028;2024-03-23T01:37:10;13.02;;;8.70;;
30301;SDS011;17111;52.130;5.028;2024-03-23T01:39:35;13.70;;;8.63;;
30301;SDS011;17111;52.130;5.028;2024-03-23T01:42:01;14.98;;;8.57;;
30301;SDS011;17111;52.130;5.028;2024-03-23T01:44:27;12.85;;;8.20;;
30301;SDS011;17111;52.130;5.028;2024-03-23T01:46:52;11.93;;;8.02;;
30301;SDS011;17111;52.130;5.028;2024-03-23T01:49:18;12.48;;;8.48;;
30301;SDS011;17111;52.130;5.028;2024-03-23T01:51:44;11.40;;;7.20;;
30301;SDS011;17111;52.130;5.028;2024-03-23T01:54:10;12.05;;;7.65;;
30301;SDS011;17111;52.130;5.028;2024-03-23T01:56:36;12.85;;;7.88;;
30301;SDS011;17111;52.130;5.028;2024-03-23T01:59:02;12.00;;;7.97;;
30301;SDS011;17111;52.130;5.028;2024-03-23T02:01:28;10.02;;;7.13;;
30301;SDS011;17111;52.130;5.028;2024-03-23T02:03:54;10.63;;;7.80;;
30301;SDS011;17111;52.130;5.028;2024-03-23T02:06:19;12.93;;;7.70;;
30301;SDS011;17111;52.130;5.028;2024-03-23T02:08:45;11.10;;;7.60;;
30301;SDS011;17111;52.130;5.028;2024-03-23T02:11:11;12.18;;;7.60;;
30301;SDS011;17111;52.130;5.028;2024-03-23T02:13:36;10.55;;;7.47;;
30301;SDS011;17111;52.130;5.028;2024-03-23T02:16:02;12.00;;;7.50;;
30301;SDS011;17111;52.130;5.028;2024-03-23T02:18:28;11.05;;;6.70;;
30301;SDS011;17111;52.130;5.028;2024-03-23T02:20:53;10.40;;;6.88;;
30301;SDS011;17111;52.130;5.028;2024-03-23T02:23:19;11.05;;;6.72;;
30301;SDS011;17111;52.130;5.028;2024-03-23T02:25:45;9.75;;;6.40;;
30301;SDS011;17111;52.130;5.028;2024-03-23T02:28:11;9.48;;;6.20;;
30301;SDS011;17111;52.130;5.028;2024-03-23T02:30:37;11.27;;;6.60;;
30301;SDS011;17111;52.130;5.028;2024-03-23T02:33:03;11.68;;;6.72;;
30301;SDS011;17111;52.130;5.028;2024-03-23T02:35:29;11.40;;;6.47;;
30301;SDS011;17111;52.130;5.028;2024-03-23T02:37:55;10.05;;;6.13;;
30301;SDS011;17111;52.130;5.028;2024-03-23T02:40:25;10.23;;;6.25;;
30301;SDS011;17111;52.130;5.028;2024-03-23T02:42:51;9.25;;;6.07;;
30301;SDS011;17111;52.130;5.028;2024-03-23T02:45:17;9.75;;;6.10;;
30301;SDS011;17111;52.130;5.028;2024-03-23T02:47:43;9.77;;;5.63;;
30301;SDS011;17111;52.130;5.028;2024-03-23T02:50:09;9.63;;;5.70;;
30301;SDS011;17111;52.130;5.028;2024-03-23T02:52:35;9.48;;;5.45;;
30301;SDS011;17111;52.130;5.028;2024-03-23T02:55:01;10.55;;;6.43;;
30301;SDS011;17111;52.130;5.028;2024-03-23T02:57:28;8.57;;;5.60;;
30301;SDS011;17111;52.130;5.028;2024-03-23T02:59:53;8.65;;;5.13;;
30301;SDS011;17111;52.130;5.028;2024-03-23T03:02:20;7.90;;;5.00;;
30301;SDS011;17111;52.130;5.028;2024-03-23T03:04:46;8.15;;;5.15;;
30301;SDS011;17111;52.130;5.028;2024-03-23T03:07:11;8.73;;;4.82;;
30301;SDS011;17111;52.130;5.028;2024-03-23T03:09:37;7.95;;;5.15;;
30301;SDS011;17111;52.130;5.028;2024-03-23T03:12:04;8.60;;;5.07;;
30301;SDS011;17111;52.130;5.028;2024-03-23T03:14:31;6.43;;;4.45;;
30301;SDS011;17111;52.130;5.028;2024-03-23T03:16:56;8.77;;;5.10;;
30301;SDS011;17111;52.130;5.028;2024-03-23T03:19:22;7.63;;;4.43;;
30301;SDS011;17111;52.130;5.028;2024-03-23T03:21:47;7.03;;;4.18;;
30301;SDS011;17111;52.130;5.028;2024-03-23T03:24:13;6.25;;;4.45;;
30301;SDS011;17111;52.130;5.028;2024-03-23T03:26:39;6.57;;;4.40;;
30301;SDS011;17111;52.130;5.028;2024-03-23T03:29:05;10.27;;;4.63;;
30301;SDS011;17111;52.130;5.028;2024-03-23T03:31:30;7.00;;;4.50;;
30301;SDS011;17111;52.130;5.028;2024-03-23T03:33:56;8.13;;;4.88;;
30301;SDS011;17111;52.130;5.028;2024-03-23T03:36:21;7.43;;;4.38;;
30301;SDS011;17111;52.130;5.028;2024-03-23T03:38:47;6.90;;;4.68;;
30301;SDS011;17111;52.130;5.028;2024-03-23T03:41:13;8.02;;;4.15;;
30301;SDS011;17111;52.130;5.028;2024-03-23T03:43:38;8.00;;;4.65;;
30301;SDS011;17111;52.130;5.028;2024-03-23T03:46:04;8.27;;;4.50;;
30301;SDS011;17111;52.130;5.028;2024-03-23T03:48:29;9.60;;;4.43;;
30301;SDS011;17111;52.130;5.028;2024-03-23T03:50:55;7.38;;;3.65;;
30301;SDS011;17111;52.130;5.028;2024-03-23T03:53:21;6.40;;;4.20;;
30301;SDS011;17111;52.130;5.028;2024-03-23T03:55:46;6.30;;;3.67;;
30301;SDS011;17111;52.130;5.028;2024-03-23T03:58:12;7.97;;;3.83;;
30301;SDS011;17111;52.130;5.028;2024-03-23T04:00:38;6.00;;;3.95;;
30301;SDS011;17111;52.130;5.028;2024-03-23T04:03:03;6.53;;;3.95;;
30301;SDS011;17111;52.130;5.028;2024-03-23T04:05:29;6.32;;;3.72;;
30301;SDS011;17111;52.130;5.028;2024-03-23T04:07:55;4.72;;;3.03;;
30301;SDS011;17111;52.130;5.028;2024-03-23T04:10:21;6.47;;;3.33;;
30301;SDS011;17111;52.130;5.028;2024-03-23T04:12:47;6.60;;;3.80;;
30301;SDS011;17111;52.130;5.028;2024-03-23T04:15:13;5.43;;;3.50;;
30301;SDS011;17111;52.130;5.028;2024-03-23T04:17:39;5.90;;;3.60;;
30301;SDS011;17111;52.130;5.028;2024-03-23T04:20:04;5.85;;;3.40;;
30301;SDS011;17111;52.130;5.028;2024-03-23T04:22:36;5.30;;;3.72;;
30301;SDS011;17111;52.130;5.028;2024-03-23T04:25:05;6.32;;;3.58;;
30301;SDS011;17111;52.130;5.028;2024-03-23T04:27:32;5.90;;;3.67;;
30301;SDS011;17111;52.130;5.028;2024-03-23T04:29:58;5.95;;;3.22;;
30301;SDS011;17111;52.130;5.028;2024-03-23T04:32:26;4.88;;;3.25;;
30301;SDS011;17111;52.130;5.028;2024-03-23T04:34:52;6.05;;;3.33;;
30301;SDS011;17111;52.130;5.028;2024-03-23T04:37:17;4.30;;;2.97;;
30301;SDS011;17111;52.130;5.028;2024-03-23T04:39:43;4.65;;;3.17;;
30301;SDS011;17111;52.130;5.028;2024-03-23T04:42:09;5.00;;;3.30;;
30301;SDS011;17111;52.130;5.028;2024-03-23T04:44:34;4.75;;;3.00;;
30301;SDS011;17111;52.130;5.028;2024-03-23T04:47:00;4.63;;;3.13;;
30301;SDS011;17111;52.130;5.028;2024-03-23T04:49:27;6.47;;;3.53;;
30301;SDS011;17111;52.130;5.028;2024-03-23T04:51:53;4.30;;;3.03;;
30301;SDS011;17111;52.130;5.028;2024-03-23T04:54:18;4.70;;;2.95;;
30301;SDS011;17111;52.130;5.028;2024-03-23T04:56:45;3.88;;;2.38;;
30301;SDS011;17111;52.130;5.028;2024-03-23T04:59:11;5.82;;;2.60;;
30301;SDS011;17111;52.130;5.028;2024-03-23T05:01:36;4.13;;;2.30;;
30301;SDS011;17111;52.130;5.028;2024-03-23T05:04:04;5.20;;;2.58;;
30301;SDS011;17111;52.130;5.028;2024-03-23T05:06:30;3.67;;;2.40;;
30301;SDS011;17111;52.130;5.028;2024-03-23T05:08:56;3.72;;;2.53;;
30301;SDS011;17111;52.130;5.028;2024-03-23T05:11:21;4.22;;;2.35;;
30301;SDS011;17111;52.130;5.028;2024-03-23T05:13:47;4.45;;;3.08;;
30301;SDS011;17111;52.130;5.028;2024-03-23T05:16:13;4.50;;;2.30;;
30301;SDS011;17111;52.130;5.028;2024-03-23T05:18:39;4.53;;;2.58;;
30301;SDS011;17111;52.130;5.028;2024-03-23T05:21:04;3.78;;;2.55;;
30301;SDS011;17111;52.130;5.028;2024-03-23T05:23:30;4.13;;;2.70;;
30301;SDS011;17111;52.130;5.028;2024-03-23T05:25:56;4.75;;;2.90;;
30301;SDS011;17111;52.130;5.028;2024-03-23T05:28:22;4.25;;;2.90;;
30301;SDS011;17111;52.130;5.028;2024-03-23T05:30:52;4.97;;;2.95;;
30301;SDS011;17111;52.130;5.028;2024-03-23T05:33:19;5.63;;;3.20;;
30301;SDS011;17111;52.130;5.028;2024-03-23T05:35:46;6.03;;;3.70;;
30301;SDS011;17111;52.130;5.028;2024-03-23T05:38:13;6.97;;;3.97;;
30301;SDS011;17111;52.130;5.028;2024-03-23T05:40:39;6.68;;;3.67;;
30301;SDS011;17111;52.130;5.028;2024-03-23T05:43:08;6.93;;;3.97;;
30301;SDS011;17111;52.130;5.028;2024-03-23T05:45:34;5.57;;;3.20;;
30301;SDS011;17111;52.130;5.028;2024-03-23T05:48:00;6.05;;;4.05;;
30301;SDS011;17111;52.130;5.028;2024-03-23T05:50:26;7.43;;;4.50;;
30301;SDS011;17111;52.130;5.028;2024-03-23T05:52:51;9.38;;;4.95;;
30301;SDS011;17111;52.130;5.028;2024-03-23T05:55:17;7.38;;;4.80;;
30301;SDS011;17111;52.130;5.028;2024-03-23T05:57:43;7.50;;;4.80;;
30301;SDS011;17111;52.130;5.028;2024-03-23T06:00:09;7.10;;;4.70;;
30301;SDS011;17111;52.130;5.028;2024-03-23T06:02:41;8.75;;;5.07;;
30301;SDS011;17111;52.130;5.028;2024-03-23T06:05:10;8.25;;;5.05;;
30301;SDS011;17111;52.130;5.028;2024-03-23T06:07:37;8.32;;;5.45;;
30301;SDS011;17111;52.130;5.028;2024-03-23T06:10:03;10.82;;;5.97;;
30301;SDS011;17111;52.130;5.028;2024-03-23T06:12:29;9.27;;;5.70;;
30301;SDS011;17111;52.130;5.028;2024-03-23T06:14:54;10.73;;;5.70;;
30301;SDS011;17111;52.130;5.028;2024-03-23T06:17:20;9.38;;;6.00;;
30301;SDS011;17111;52.130;5.028;2024-03-23T06:19:46;10.52;;;6.35;;
30301;SDS011;17111;52.130;5.028;2024-03-23T06:22:11;8.35;;;5.53;;
30301;SDS011;17111;52.130;5.028;2024-03-23T06:24:37;11.73;;;6.60;;
30301;SDS011;17111;52.130;5.028;2024-03-23T06:27:03;9.23;;;5.63;;
30301;SDS011;17111;52.130;5.028;2024-03-23T06:29:29;10.45;;;6.45;;
30301;SDS011;17111;52.130;5.028;2024-03-23T06:31:55;11.93;;;6.85;;
30301;SDS011;17111;52.130;5.028;2024-03-23T06:34:21;10.82;;;7.45;;
30301;SDS011;17111;52.130;5.028;2024-03-23T06:36:48;10.93;;;6.95;;
30301;SDS011;17111;52.130;5.028;2024-03-23T06:39:14;11.07;;;6.70;;
30301;SDS011;17111;52.130;5.028;2024-03-23T06:41:50;12.85;;;7.57;;
30301;SDS011;17111;52.130;5.028;2024-03-23T06:44:17;11.88;;;7.05;;
30301;SDS011;17111;52.130;5.028;2024-03-23T06:46:44;12.02;;;7.80;;
30301;SDS011;17111;52.130;5.028;2024-03-23T06:49:14;12.95;;;8.55;;
30301;SDS011;17111;52.130;5.028;2024-03-23T06:51:40;12.90;;;7.75;;
30301;SDS011;17111;52.130;5.028;2024-03-23T06:54:06;14.30;;;7.32;;
30301;SDS011;17111;52.130;5.028;2024-03-23T06:56:32;12.10;;;7.28;;
30301;SDS011;17111;52.130;5.028;2024-03-23T06:58:58;12.75;;;7.65;;
30301;SDS011;17111;52.130;5.028;2024-03-23T07:01:24;10.90;;;7.47;;
30301;SDS011;17111;52.130;5.028;2024-03-23T07:03:50;13.40;;;7.80;;
30301;SDS011;17111;52.130;5.028;2024-03-23T07:06:15;11.82;;;7.93;;
30301;SDS011;17111;52.130;5.028;2024-03-23T07:08:41;13.10;;;7.93;;
30301;SDS011;17111;52.130;5.028;2024-03-23T07:11:07;13.60;;;8.43;;
30301;SDS011;17111;52.130;5.028;2024-03-23T07:13:33;12.20;;;7.63;;
30301;SDS011;17111;52.130;5.028;2024-03-23T07:15:58;13.32;;;8.18;;
30301;SDS011;17111;52.130;5.028;2024-03-23T07:18:25;11.30;;;7.68;;
30301;SDS011;17111;52.130;5.028;2024-03-23T07:20:54;11.60;;;7.65;;
30301;SDS011;17111;52.130;5.028;2024-03-23T07:23:21;13.32;;;8.07;;
30301;SDS011;17111;52.130;5.028;2024-03-23T07:25:57;12.90;;;7.75;;
30301;SDS011;17111;52.130;5.028;2024-03-23T07:28:23;12.40;;;7.75;;
30301;SDS011;17111;52.130;5.028;2024-03-23T07:31:00;12.20;;;7.13;;
30301;SDS011;17111;52.130;5.028;2024-03-23T07:33:29;9.88;;;7.03;;
30301;SDS011;17111;52.130;5.028;2024-03-23T07:35:55;12.15;;;8.20;;
30301;SDS011;17111;52.130;5.028;2024-03-23T07:38:21;13.25;;;7.90;;
30301;SDS011;17111;52.130;5.028;2024-03-23T07:40:47;11.45;;;7.18;;
30301;SDS011;17111;52.130;5.028;2024-03-23T07:43:15;13.25;;;8.00;;
30301;SDS011;17111;52.130;5.028;2024-03-23T07:45:41;12.25;;;7.65;;
30301;SDS011;17111;52.130;5.028;2024-03-23T07:48:07;10.85;;;7.28;;
30301;SDS011;17111;52.130;5.028;2024-03-23T07:50:32;13.68;;;8.07;;
30301;SDS011;17111;52.130;5.028;2024-03-23T07:52:58;13.60;;;8.98;;
30301;SDS011;17111;52.130;5.028;2024-03-23T07:55:24;19.23;;;10.65;;
30301;SDS011;17111;52.130;5.028;2024-03-23T07:57:50;17.95;;;10.77;;
30301;SDS011;17111;52.130;5.028;2024-03-23T08:00:16;21.17;;;12.00;;
30301;SDS011;17111;52.130;5.028;2024-03-23T08:02:42;20.50;;;12.00;;
30301;SDS011;17111;52.130;5.028;2024-03-23T08:05:08;19.25;;;11.45;;
30301;SDS011;17111;52.130;5.028;2024-03-23T08:07:34;18.55;;;12.20;;
30301;SDS011;17111;52.130;5.028;2024-03-23T08:10:00;20.20;;;12.15;;
30301;SDS011;17111;52.130;5.028;2024-03-23T08:12:28;19.90;;;12.23;;
30301;SDS011;17111;52.130;5.028;2024-03-23T08:14:54;19.15;;;11.13;;
30301;SDS011;17111;52.130;5.028;2024-03-23T08:17:20;20.42;;;11.57;;
30301;SDS011;17111;52.130;5.028;2024-03-23T08:19:45;21.95;;;11.52;;
30301;SDS011;17111;52.130;5.028;2024-03-23T08:22:11;22.05;;;11.38;;
30301;SDS011;17111;52.130;5.028;2024-03-23T08:24:37;20.00;;;10.95;;
30301;SDS011;17111;52.130;5.028;2024-03-23T08:27:02;18.23;;;9.00;;
30301;SDS011;17111;52.130;5.028;2024-03-23T08:29:30;16.80;;;9.18;;
30301;SDS011;17111;52.130;5.028;2024-03-23T08:31:55;15.82;;;8.70;;
30301;SDS011;17111;52.130;5.028;2024-03-23T08:34:21;15.27;;;8.77;;
30301;SDS011;17111;52.130;5.028;2024-03-23T08:36:47;14.95;;;8.32;;
30301;SDS011;17111;52.130;5.028;2024-03-23T08:39:13;14.77;;;8.02;;
30301;SDS011;17111;52.130;5.028;2024-03-23T08:41:39;15.93;;;8.63;;
30301;SDS011;17111;52.130;5.028;2024-03-23T08:44:05;14.02;;;7.65;;
30301;SDS011;17111;52.130;5.028;2024-03-23T08:46:30;18.63;;;8.65;;
30301;SDS011;17111;52.130;5.028;2024-03-23T08:48:56;15.65;;;7.40;;
30301;SDS011;17111;52.130;5.028;2024-03-23T08:51:22;15.32;;;7.68;;
30301;SDS011;17111;52.130;5.028;2024-03-23T08:53:47;13.82;;;7.53;;
30301;SDS011;17111;52.130;5.028;2024-03-23T08:56:13;12.27;;;7.00;;
30301;SDS011;17111;52.130;5.028;2024-03-23T08:58:39;13.35;;;6.85;;
30301;SDS011;17111;52.130;5.028;2024-03-23T09:01:06;11.80;;;6.90;;
30301;SDS011;17111;52.130;5.028;2024-03-23T09:03:36;12.68;;;8.02;;
30301;SDS011;17111;52.130;5.028;2024-03-23T09:06:06;15.80;;;8.98;;
30301;SDS011;17111;52.130;5.028;2024-03-23T09:08:32;14.45;;;9.13;;
30301;SDS011;17111;52.130;5.028;2024-03-23T09:11:03;16.60;;;10.07;;
30301;SDS011;17111;52.130;5.028;2024-03-23T09:13:31;15.85;;;10.35;;
30301;SDS011;17111;52.130;5.028;2024-03-23T09:16:00;20.25;;;11.85;;
30301;SDS011;17111;52.130;5.028;2024-03-23T09:18:26;20.25;;;12.65;;
30301;SDS011;17111;52.130;5.028;2024-03-23T09:20:52;20.70;;;12.43;;
30301;SDS011;17111;52.130;5.028;2024-03-23T09:23:21;24.27;;;13.50;;
30301;SDS011;17111;52.130;5.028;2024-03-23T09:25:46;22.30;;;13.70;;
30301;SDS011;17111;52.130;5.028;2024-03-23T09:28:12;23.00;;;14.27;;
30301;SDS011;17111;52.130;5.028;2024-03-23T09:30:38;23.55;;;15.45;;
30301;SDS011;17111;52.130;5.028;2024-03-23T09:33:08;24.42;;;15.80;;
30301;SDS011;17111;52.130;5.028;2024-03-23T09:35:37;27.27;;;16.75;;
30301;SDS011;17111;52.130;5.028;2024-03-23T09:38:04;23.90;;;15.48;;
30301;SDS011;17111;52.130;5.028;2024-03-23T09:40:29;28.25;;;17.50;;
30301;SDS011;17111;52.130;5.028;2024-03-23T09:42:56;25.50;;;16.30;;
30301;SDS011;17111;52.130;5.028;2024-03-23T09:45:26;26.42;;;17.30;;
30301;SDS011;17111;52.130;5.028;2024-03-23T09:47:53;27.77;;;17.45;;
30301;SDS011;17111;52.130;5.028;2024-03-23T09:50:19;24.77;;;15.93;;
30301;SDS011;17111;52.130;5.028;2024-03-23T09:52:45;25.38;;;16.23;;
30301;SDS011;17111;52.130;5.028;2024-03-23T09:55:11;26.08;;;16.00;;
30301;SDS011;17111;52.130;5.028;2024-03-23T09:57:37;24.70;;;15.35;;
30301;SDS011;17111;52.130;5.028;2024-03-23T10:00:03;23.17;;;14.25;;
30301;SDS011;17111;52.130;5.028;2024-03-23T10:02:29;26.05;;;15.43;;
30301;SDS011;17111;52.130;5.028;2024-03-23T10:04:55;23.02;;;14.38;;
30301;SDS011;17111;52.130;5.028;2024-03-23T10:07:22;24.10;;;14.35;;
30301;SDS011;17111;52.130;5.028;2024-03-23T10:09:54;27.80;;;17.70;;
30301;SDS011;17111;52.130;5.028;2024-03-23T10:12:20;26.77;;;15.82;;
30301;SDS011;17111;52.130;5.028;2024-03-23T10:14:46;22.65;;;14.63;;
30301;SDS011;17111;52.130;5.028;2024-03-23T10:17:14;24.23;;;14.90;;
30301;SDS011;17111;52.130;5.028;2024-03-23T10:19:44;22.95;;;13.88;;
30301;SDS011;17111;52.130;5.028;2024-03-23T10:22:21;20.10;;;13.88;;
30301;SDS011;17111;52.130;5.028;2024-03-23T10:24:48;24.70;;;15.27;;
30301;SDS011;17111;52.130;5.028;2024-03-23T10:27:20;24.15;;;15.32;;
30301;SDS011;17111;52.130;5.028;2024-03-23T10:29:47;26.17;;;15.38;;
30301;SDS011;17111;52.130;5.028;2024-03-23T10:32:14;23.55;;;15.20;;
30301;SDS011;17111;52.130;5.028;2024-03-23T10:34:41;24.08;;;15.38;;
30301;SDS011;17111;52.130;5.028;2024-03-23T10:37:07;23.35;;;15.02;;
30301;SDS011;17111;52.130;5.028;2024-03-23T10:39:37;24.77;;;15.38;;
30301;SDS011;17111;52.130;5.028;2024-03-23T10:42:08;21.00;;;14.65;;
30301;SDS011;17111;52.130;5.028;2024-03-23T10:44:36;23.35;;;14.70;;
30301;SDS011;17111;52.130;5.028;2024-03-23T10:47:02;23.80;;;14.90;;
30301;SDS011;17111;52.130;5.028;2024-03-23T10:49:30;24.33;;;15.82;;
30301;SDS011;17111;52.130;5.028;2024-03-23T10:52:03;25.60;;;15.25;;
30301;SDS011;17111;52.130;5.028;2024-03-23T10:54:30;24.35;;;15.23;;
30301;SDS011;17111;52.130;5.028;2024-03-23T10:57:01;24.88;;;14.55;;
30301;SDS011;17111;52.130;5.028;2024-03-23T10:59:29;22.88;;;13.25;;
30301;SDS011;17111;52.130;5.028;2024-03-23T11:01:56;20.42;;;13.38;;
30301;SDS011;17111;52.130;5.028;2024-03-23T11:04:30;20.20;;;13.10;;
30301;SDS011;17111;52.130;5.028;2024-03-23T11:06:57;20.20;;;12.55;;
30301;SDS011;17111;52.130;5.028;2024-03-23T11:09:38;20.10;;;13.02;;
30301;SDS011;17111;52.130;5.028;2024-03-23T11:14:45;23.90;;;13.45;;
30301;SDS011;17111;52.130;5.028;2024-03-23T11:17:11;27.70;;;15.82;;
30301;SDS011;17111;52.130;5.028;2024-03-23T11:19:37;41.90;;;24.85;;
30301;SDS011;17111;52.130;5.028;2024-03-23T11:22:03;44.63;;;27.50;;
30301;SDS011;17111;52.130;5.028;2024-03-23T11:24:30;42.72;;;25.23;;
30301;SDS011;17111;52.130;5.028;2024-03-23T11:26:56;40.20;;;24.17;;
30301;SDS011;17111;52.130;5.028;2024-03-23T11:29:27;35.47;;;21.70;;
30301;SDS011;17111;52.130;5.028;2024-03-23T11:31:52;35.90;;;20.90;;
30301;SDS011;17111;52.130;5.028;2024-03-23T11:34:19;35.58;;;20.30;;
30301;SDS011;17111;52.130;5.028;2024-03-23T11:36:45;32.25;;;18.80;;
30301;SDS011;17111;52.130;5.028;2024-03-23T11:39:15;36.58;;;19.70;;
30301;SDS011;17111;52.130;5.028;2024-03-23T11:41:49;25.00;;;15.30;;
30301;SDS011;17111;52.130;5.028;2024-03-23T11:44:19;29.50;;;17.50;;
30301;SDS011;17111;52.130;5.028;2024-03-23T11:46:47;28.95;;;17.05;;
30301;SDS011;17111;52.130;5.028;2024-03-23T11:49:24;29.08;;;15.13;;
30301;SDS011;17111;52.130;5.028;2024-03-23T11:51:51;38.58;;;14.82;;
30301;SDS011;17111;52.130;5.028;2024-03-23T11:54:25;34.05;;;14.90;;
30301;SDS011;17111;52.130;5.028;2024-03-23T11:57:02;32.37;;;13.40;;
30301;SDS011;17111;52.130;5.028;2024-03-23T11:59:30;35.72;;;14.70;;
30301;SDS011;17111;52.130;5.028;2024-03-23T12:01:56;40.05;;;16.23;;
30301;SDS011;17111;52.130;5.028;2024-03-23T12:04:26;35.85;;;15.30;;
30301;SDS011;17111;52.130;5.028;2024-03-23T12:07:08;38.55;;;15.40;;
30301;SDS011;17111;52.130;5.028;2024-03-23T12:09:38;37.50;;;15.73;;
30301;SDS011;17111;52.130;5.028;2024-03-23T12:12:13;40.00;;;16.00;;
30301;SDS011;17111;52.130;5.028;2024-03-23T12:14:45;38.45;;;17.00;;
30301;SDS011;17111;52.130;5.028;2024-03-23T12:17:26;45.70;;;21.73;;
30301;SDS011;17111;52.130;5.028;2024-03-23T12:19:52;41.75;;;18.65;;
30301;SDS011;17111;52.130;5.028;2024-03-23T12:22:21;56.30;;;26.05;;
30301;SDS011;17111;52.130;5.028;2024-03-23T12:24:47;51.08;;;23.80;;
30301;SDS011;17111;52.130;5.028;2024-03-23T12:27:13;53.13;;;25.52;;
30301;SDS011;17111;52.130;5.028;2024-03-23T12:29:40;47.22;;;23.38;;
30301;SDS011;17111;52.130;5.028;2024-03-23T12:32:11;54.65;;;22.63;;
30301;SDS011;17111;52.130;5.028;2024-03-23T12:34:37;43.50;;;19.92;;
30301;SDS011;17111;52.130;5.028;2024-03-23T12:37:03;38.20;;;20.00;;
30301;SDS011;17111;52.130;5.028;2024-03-23T12:39:29;40.53;;;19.10;;
30301;SDS011;17111;52.130;5.028;2024-03-23T12:41:55;38.85;;;19.20;;
30301;SDS011;17111;52.130;5.028;2024-03-23T12:44:20;39.08;;;17.23;;
30301;SDS011;17111;52.130;5.028;2024-03-23T12:46:46;34.85;;;16.92;;
30301;SDS011;17111;52.130;5.028;2024-03-23T12:49:12;32.70;;;16.17;;
30301;SDS011;17111;52.130;5.028;2024-03-23T12:51:37;33.83;;;16.58;;
30301;SDS011;17111;52.130;5.028;2024-03-23T12:54:03;32.00;;;15.60;;
30301;SDS011;17111;52.130;5.028;2024-03-23T12:56:29;31.25;;;15.57;;
30301;SDS011;17111;52.130;5.028;2024-03-23T12:58:55;29.92;;;15.80;;
30301;SDS011;17111;52.130;5.028;2024-03-23T13:01:23;25.33;;;13.75;;
30301;SDS011;17111;52.130;5.028;2024-03-23T13:03:49;27.27;;;13.68;;
30301;SDS011;17111;52.130;5.028;2024-03-23T13:06:16;24.60;;;13.05;;
30301;SDS011;17111;52.130;5.028;2024-03-23T13:08:44;26.48;;;14.43;;
30301;SDS011;17111;52.130;5.028;2024-03-23T13:11:10;26.02;;;13.57;;
30301;SDS011;17111;52.130;5.028;2024-03-23T13:13:36;26.80;;;13.30;;
30301;SDS011;17111;52.130;5.028;2024-03-23T13:16:02;21.13;;;12.40;;
30301;SDS011;17111;52.130;5.028;2024-03-23T13:18:29;21.45;;;12.82;;
30301;SDS011;17111;52.130;5.028;2024-03-23T13:20:55;27.05;;;13.30;;
30301;SDS011;17111;52.130;5.028;2024-03-23T13:23:21;18.75;;;11.55;;
30301;SDS011;17111;52.130;5.028;2024-03-23T13:25:50;22.33;;;12.13;;
30301;SDS011;17111;52.130;5.028;2024-03-23T13:30:49;19.23;;;11.20;;
30301;SDS011;17111;52.130;5.028;2024-03-23T13:33:18;20.20;;;10.90;;
30301;SDS011;17111;52.130;5.028;2024-03-23T13:35:51;17.55;;;9.60;;
30301;SDS011;17111;52.130;5.028;2024-03-23T13:38:21;19.80;;;10.18;;
30301;SDS011;17111;52.130;5.028;2024-03-23T13:43:16;17.20;;;9.85;;
30301;SDS011;17111;52.130;5.028;2024-03-23T13:45:42;13.90;;;9.02;;
30301;SDS011;17111;52.130;5.028;2024-03-23T13:48:07;15.35;;;9.10;;
30301;SDS011;17111;52.130;5.028;2024-03-23T13:50:33;16.73;;;9.65;;
30301;SDS011;17111;52.130;5.028;2024-03-23T13:52:59;16.58;;;9.10;;
30301;SDS011;17111;52.130;5.028;2024-03-23T13:55:24;15.30;;;8.50;;
30301;SDS011;17111;52.130;5.028;2024-03-23T13:57:50;21.05;;;9.77;;
30301;SDS011;17111;52.130;5.028;2024-03-23T14:00:16;14.35;;;8.55;;
30301;SDS011;17111;52.130;5.028;2024-03-23T14:02:43;16.17;;;8.68;;
30301;SDS011;17111;52.130;5.028;2024-03-23T14:05:09;14.00;;;7.93;;
30301;SDS011;17111;52.130;5.028;2024-03-23T14:07:36;13.45;;;7.25;;
30301;SDS011;17111;52.130;5.028;2024-03-23T14:10:05;10.85;;;6.38;;
30301;SDS011;17111;52.130;5.028;2024-03-23T14:12:32;13.05;;;7.10;;
30301;SDS011;17111;52.130;5.028;2024-03-23T14:14:58;10.73;;;6.65;;
30301;SDS011;17111;52.130;5.028;2024-03-23T14:17:23;11.73;;;6.60;;
30301;SDS011;17111;52.130;5.028;2024-03-23T14:19:50;11.02;;;5.93;;
30301;SDS011;17111;52.130;5.028;2024-03-23T14:22:16;12.32;;;6.80;;
30301;SDS011;17111;52.130;5.028;2024-03-23T14:24:44;12.45;;;6.72;;
30301;SDS011;17111;52.130;5.028;2024-03-23T14:27:10;14.43;;;6.85;;
30301;SDS011;17111;52.130;5.028;2024-03-23T14:29:36;12.40;;;7.18;;
30301;SDS011;17111;52.130;5.028;2024-03-23T14:32:01;10.05;;;6.03;;
30301;SDS011;17111;52.130;5.028;2024-03-23T14:34:27;9.90;;;5.93;;
30301;SDS011;17111;52.130;5.028;2024-03-23T14:36:53;12.85;;;6.25;;
30301;SDS011;17111;52.130;5.028;2024-03-23T14:39:23;9.25;;;6.07;;
30301;SDS011;17111;52.130;5.028;2024-03-23T14:41:50;9.90;;;6.00;;
30301;SDS011;17111;52.130;5.028;2024-03-23T14:44:15;12.52;;;6.55;;
30301;SDS011;17111;52.130;5.028;2024-03-23T14:46:41;12.88;;;6.90;;
30301;SDS011;17111;52.130;5.028;2024-03-23T14:49:08;10.82;;;6.30;;
30301;SDS011;17111;52.130;5.028;2024-03-23T14:51:33;9.68;;;6.30;;
30301;SDS011;17111;52.130;5.028;2024-03-23T14:53:59;9.27;;;5.55;;
30301;SDS011;17111;52.130;5.028;2024-03-23T14:56:25;7.63;;;5.28;;
30301;SDS011;17111;52.130;5.028;2024-03-23T14:58:54;9.48;;;5.50;;
30301;SDS011;17111;52.130;5.028;2024-03-23T15:01:20;9.65;;;5.05;;
30301;SDS011;17111;52.130;5.028;2024-03-23T15:03:46;9.38;;;5.07;;
30301;SDS011;17111;52.130;5.028;2024-03-23T15:06:12;8.27;;;4.88;;
30301;SDS011;17111;52.130;5.028;2024-03-23T15:08:38;10.20;;;4.53;;
30301;SDS011;17111;52.130;5.028;2024-03-23T15:11:05;8.48;;;4.30;;
30301;SDS011;17111;52.130;5.028;2024-03-23T15:13:32;8.70;;;4.97;;
30301;SDS011;17111;52.130;5.028;2024-03-23T15:15:58;7.60;;;4.45;;
30301;SDS011;17111;52.130;5.028;2024-03-23T15:18:24;8.15;;;4.40;;
30301;SDS011;17111;52.130;5.028;2024-03-23T15:20:55;9.40;;;4.72;;
30301;SDS011;17111;52.130;5.028;2024-03-23T15:23:21;8.68;;;4.68;;
30301;SDS011;17111;52.130;5.028;2024-03-23T15:25:57;8.07;;;4.35;;
30301;SDS011;17111;52.130;5.028;2024-03-23T15:28:27;9.52;;;4.13;;
30301;SDS011;17111;52.130;5.028;2024-03-23T15:31:04;8.25;;;4.47;;
30301;SDS011;17111;52.130;5.028;2024-03-23T15:33:29;9.25;;;3.78;;